T7ZEM BGBW-BIRK
Flight info
| Callsign | T7ZEM |
|---|---|
| Flight time | 2h 18m |
| Altitude | 29000 |
| Route | 62N040W 63N030W DCT EPENI DCT ELDIS |
| Aircraft | TBM8/L-SDFGRWY/S |
Departure
| Time | 2026-05-04 15:15 |
|---|---|
| Airport | Narsarsuaq Airport (BGBW) |
Arrival
| Time | 2026-05-04 17:33 |
|---|---|
| Airport | Reykjavík Domestic Airport (BIRK) |
| Time | Latitude | Longitude | Altitude | Speed | Heading |
|---|---|---|---|---|---|
| 2026-05-04 15:07 | 61.16205 | -45.41853 | 61 ft | 0 kts | 17° |
| 2026-05-04 15:12 | 61.16230 | -45.41813 | 62 ft | 11 kts | 51° |
| 2026-05-04 15:13 | 61.16309 | -45.41748 | 66 ft | 15 kts | 318° |
| 2026-05-04 15:13 | 61.16381 | -45.41931 | 71 ft | 14 kts | 325° |
| 2026-05-04 15:13 | 61.16471 | -45.41870 | 83 ft | 17 kts | 39° |
| 2026-05-04 15:13 | 61.16566 | -45.41686 | 87 ft | 17 kts | 58° |
| 2026-05-04 15:14 | 61.16581 | -45.41684 | 87 ft | 6 kts | 261° |
| 2026-05-04 15:14 | 61.16443 | -45.41921 | 80 ft | 51 kts | 220° |
| 2026-05-04 15:14 | 61.16027 | -45.42652 | 63 ft | 104 kts | 221° |
| 2026-05-04 15:14 | 61.15401 | -45.43711 | 231 ft | 126 kts | 218° |
| 2026-05-04 15:15 | 61.14655 | -45.44635 | 733 ft | 127 kts | 206° |
| 2026-05-04 15:15 | 61.13988 | -45.45871 | 1172 ft | 131 kts | 226° |
| 2026-05-04 15:15 | 61.13348 | -45.47219 | 1668 ft | 132 kts | 224° |
| 2026-05-04 15:16 | 61.12386 | -45.50329 | 2702 ft | 138 kts | 282° |
| 2026-05-04 15:16 | 61.13017 | -45.51701 | 3214 ft | 138 kts | 348° |
| 2026-05-04 15:16 | 61.14536 | -45.49896 | 4241 ft | 134 kts | 59° |
| 2026-05-04 15:17 | 61.14940 | -45.48137 | 4738 ft | 136 kts | 67° |
| 2026-05-04 15:17 | 61.15708 | -45.44470 | 5705 ft | 142 kts | 70° |
| 2026-05-04 15:17 | 61.16092 | -45.42551 | 6204 ft | 146 kts | 71° |
| 2026-05-04 15:18 | 61.16485 | -45.40584 | 6684 ft | 149 kts | 71° |
| 2026-05-04 15:18 | 61.16884 | -45.38588 | 7133 ft | 151 kts | 70° |
| 2026-05-04 15:18 | 61.17291 | -45.36557 | 7552 ft | 154 kts | 70° |
| 2026-05-04 15:19 | 61.18121 | -45.32404 | 8390 ft | 158 kts | 69° |
| 2026-05-04 15:19 | 61.18540 | -45.30283 | 8815 ft | 160 kts | 69° |
| 2026-05-04 15:19 | 61.19397 | -45.25972 | 9675 ft | 164 kts | 68° |
| 2026-05-04 15:20 | 61.19837 | -45.23777 | 10079 ft | 166 kts | 68° |
| 2026-05-04 15:20 | 61.20274 | -45.21557 | 10477 ft | 167 kts | 69° |
| 2026-05-04 15:20 | 61.20715 | -45.19331 | 10880 ft | 167 kts | 68° |
| 2026-05-04 15:20 | 61.21158 | -45.17091 | 11282 ft | 168 kts | 68° |
| 2026-05-04 15:21 | 61.21605 | -45.14836 | 11689 ft | 169 kts | 68° |
| 2026-05-04 15:21 | 61.22052 | -45.12574 | 12112 ft | 170 kts | 68° |
| 2026-05-04 15:21 | 61.22947 | -45.08043 | 12899 ft | 172 kts | 69° |
| 2026-05-04 15:22 | 61.23394 | -45.05742 | 13330 ft | 172 kts | 68° |
| 2026-05-04 15:22 | 61.23855 | -45.03402 | 13748 ft | 173 kts | 68° |
| 2026-05-04 15:22 | 61.24765 | -44.98772 | 14485 ft | 176 kts | 68° |
| 2026-05-04 15:23 | 61.25228 | -44.96408 | 14836 ft | 177 kts | 68° |
| 2026-05-04 15:23 | 61.25696 | -44.94017 | 15193 ft | 179 kts | 68° |
| 2026-05-04 15:23 | 61.26167 | -44.91610 | 15548 ft | 181 kts | 68° |
| 2026-05-04 15:23 | 61.26641 | -44.89181 | 15888 ft | 182 kts | 68° |
| 2026-05-04 15:24 | 61.27603 | -44.84249 | 16557 ft | 186 kts | 66° |
| 2026-05-04 15:24 | 61.28579 | -44.79218 | 17256 ft | 189 kts | 67° |
| 2026-05-04 15:25 | 61.29073 | -44.76669 | 17604 ft | 191 kts | 66° |
| 2026-05-04 15:25 | 61.29571 | -44.74101 | 17967 ft | 192 kts | 66° |
| 2026-05-04 15:25 | 61.30072 | -44.71514 | 18275 ft | 193 kts | 67° |
| 2026-05-04 15:26 | 61.31081 | -44.66284 | 18893 ft | 196 kts | 66° |
| 2026-05-04 15:26 | 61.31590 | -44.63647 | 19210 ft | 197 kts | 65° |
| 2026-05-04 15:26 | 61.32612 | -44.58331 | 19821 ft | 199 kts | 64° |
| 2026-05-04 15:27 | 61.33122 | -44.55684 | 20107 ft | 200 kts | 64° |
| 2026-05-04 15:27 | 61.34154 | -44.50287 | 20709 ft | 201 kts | 64° |
| 2026-05-04 15:28 | 61.35195 | -44.44840 | 21311 ft | 203 kts | 63° |
| 2026-05-04 15:28 | 61.35718 | -44.42097 | 21602 ft | 204 kts | 63° |
| 2026-05-04 15:28 | 61.36769 | -44.36572 | 22187 ft | 206 kts | 62° |
| 2026-05-04 15:29 | 61.37297 | -44.33789 | 22474 ft | 207 kts | 62° |
| 2026-05-04 15:30 | 61.39427 | -44.22532 | 23653 ft | 211 kts | 60° |
| 2026-05-04 15:30 | 61.41038 | -44.13973 | 24410 ft | 211 kts | 59° |
| 2026-05-04 15:31 | 61.42115 | -44.08227 | 24876 ft | 213 kts | 59° |
| 2026-05-04 15:31 | 61.42657 | -44.05334 | 25102 ft | 214 kts | 59° |
| 2026-05-04 15:32 | 61.44294 | -43.96556 | 25774 ft | 218 kts | 58° |
| 2026-05-04 15:32 | 61.45389 | -43.90666 | 26210 ft | 219 kts | 58° |
| 2026-05-04 15:33 | 61.46499 | -43.84674 | 26657 ft | 222 kts | 58° |
| 2026-05-04 15:34 | 61.48177 | -43.75581 | 27328 ft | 225 kts | 57° |
| 2026-05-04 15:34 | 61.48740 | -43.72523 | 27534 ft | 226 kts | 57° |
| 2026-05-04 15:34 | 61.49872 | -43.66359 | 27938 ft | 228 kts | 57° |
| 2026-05-04 15:35 | 61.51010 | -43.60137 | 28357 ft | 230 kts | 57° |
| 2026-05-04 15:35 | 61.51582 | -43.57001 | 28562 ft | 231 kts | 57° |
| 2026-05-04 15:35 | 61.52149 | -43.53886 | 28761 ft | 232 kts | 57° |
| 2026-05-04 15:36 | 61.53297 | -43.47569 | 29222 ft | 234 kts | 56° |
| 2026-05-04 15:36 | 61.53895 | -43.44307 | 29227 ft | 245 kts | 56° |
| 2026-05-04 15:36 | 61.54514 | -43.40886 | 29224 ft | 257 kts | 57° |
| 2026-05-04 15:37 | 61.55157 | -43.37312 | 29238 ft | 267 kts | 58° |
| 2026-05-04 15:37 | 61.55825 | -43.33600 | 29242 ft | 276 kts | 58° |
| 2026-05-04 15:37 | 61.56509 | -43.29795 | 29233 ft | 282 kts | 58° |
| 2026-05-04 15:37 | 61.57209 | -43.25893 | 29230 ft | 288 kts | 59° |
| 2026-05-04 15:38 | 61.57920 | -43.21930 | 29257 ft | 292 kts | 59° |
| 2026-05-04 15:38 | 61.58640 | -43.17906 | 29259 ft | 297 kts | 59° |
| 2026-05-04 15:38 | 61.59368 | -43.13826 | 29262 ft | 300 kts | 59° |
| 2026-05-04 15:38 | 61.60102 | -43.09699 | 29273 ft | 303 kts | 59° |
| 2026-05-04 15:39 | 61.61596 | -43.01315 | 29279 ft | 310 kts | 60° |
| 2026-05-04 15:40 | 61.63880 | -42.88342 | 29286 ft | 319 kts | 60° |
| 2026-05-04 15:40 | 61.65425 | -42.79545 | 29295 ft | 323 kts | 60° |
| 2026-05-04 15:41 | 61.66969 | -42.70700 | 29283 ft | 325 kts | 60° |
| 2026-05-04 15:41 | 61.68528 | -42.61744 | 29292 ft | 326 kts | 60° |
| 2026-05-04 15:42 | 61.70088 | -42.52724 | 29292 ft | 328 kts | 60° |
| 2026-05-04 15:42 | 61.71645 | -42.43686 | 29293 ft | 328 kts | 60° |
| 2026-05-04 15:43 | 61.73193 | -42.34651 | 29290 ft | 327 kts | 60° |
| 2026-05-04 15:43 | 61.74735 | -42.25613 | 29289 ft | 327 kts | 60° |
| 2026-05-04 15:44 | 61.76270 | -42.16570 | 29283 ft | 327 kts | 60° |
| 2026-05-04 15:44 | 61.77795 | -42.07553 | 29286 ft | 327 kts | 61° |
| 2026-05-04 15:45 | 61.79319 | -41.98474 | 29286 ft | 328 kts | 62° |
| 2026-05-04 15:45 | 61.80842 | -41.89379 | 29286 ft | 328 kts | 62° |
| 2026-05-04 15:46 | 61.82357 | -41.80270 | 29283 ft | 329 kts | 62° |
| 2026-05-04 15:46 | 61.83616 | -41.72674 | 29283 ft | 329 kts | 62° |
| 2026-05-04 15:47 | 61.85371 | -41.62029 | 29284 ft | 329 kts | 62° |
| 2026-05-04 15:47 | 61.86873 | -41.52868 | 29256 ft | 329 kts | 63° |
| 2026-05-04 15:48 | 61.88363 | -41.43735 | 29262 ft | 327 kts | 63° |
| 2026-05-04 15:48 | 61.90344 | -41.31512 | 29273 ft | 327 kts | 65° |
| 2026-05-04 15:49 | 61.91807 | -41.22449 | 29270 ft | 327 kts | 65° |
| 2026-05-04 15:49 | 61.93270 | -41.13323 | 29269 ft | 326 kts | 65° |
| 2026-05-04 15:50 | 61.94729 | -41.04186 | 29268 ft | 326 kts | 65° |
| 2026-05-04 15:50 | 61.96179 | -40.95054 | 29265 ft | 326 kts | 65° |
| 2026-05-04 15:51 | 61.97623 | -40.85916 | 29262 ft | 326 kts | 65° |
| 2026-05-04 15:51 | 61.99060 | -40.76772 | 29261 ft | 326 kts | 65° |
| 2026-05-04 15:52 | 62.00492 | -40.67618 | 29261 ft | 327 kts | 68° |
| 2026-05-04 15:52 | 62.01923 | -40.58415 | 29257 ft | 327 kts | 68° |
| 2026-05-04 15:53 | 62.03347 | -40.49210 | 29257 ft | 327 kts | 68° |
| 2026-05-04 15:53 | 62.04760 | -40.40036 | 29254 ft | 327 kts | 68° |
| 2026-05-04 15:54 | 62.06173 | -40.30810 | 29254 ft | 327 kts | 68° |
| 2026-05-04 15:54 | 62.07579 | -40.21573 | 29253 ft | 327 kts | 68° |
| 2026-05-04 15:55 | 62.08980 | -40.12327 | 29253 ft | 327 kts | 68° |
| 2026-05-04 15:55 | 62.10376 | -40.03064 | 29242 ft | 327 kts | 68° |
| 2026-05-04 15:56 | 62.11765 | -39.93799 | 29242 ft | 327 kts | 68° |
| 2026-05-04 15:56 | 62.13147 | -39.84524 | 29242 ft | 328 kts | 68° |
| 2026-05-04 15:57 | 62.14524 | -39.75239 | 29241 ft | 328 kts | 68° |
| 2026-05-04 15:57 | 62.15886 | -39.66006 | 29241 ft | 328 kts | 68° |
| 2026-05-04 15:58 | 62.17252 | -39.56693 | 29241 ft | 328 kts | 69° |
| 2026-05-04 15:58 | 62.18611 | -39.47379 | 29241 ft | 328 kts | 69° |
| 2026-05-04 15:59 | 62.19963 | -39.38054 | 29241 ft | 328 kts | 69° |
| 2026-05-04 15:59 | 62.21310 | -39.28721 | 29240 ft | 328 kts | 69° |
| 2026-05-04 16:00 | 62.22651 | -39.19366 | 29243 ft | 328 kts | 71° |
| 2026-05-04 16:00 | 62.23991 | -39.09984 | 29243 ft | 329 kts | 71° |
| 2026-05-04 16:01 | 62.25321 | -39.00607 | 29244 ft | 329 kts | 71° |
| 2026-05-04 16:01 | 62.26649 | -38.91199 | 29245 ft | 329 kts | 71° |
| 2026-05-04 16:02 | 62.27968 | -38.81790 | 29240 ft | 329 kts | 71° |
| 2026-05-04 16:03 | 62.29928 | -38.67719 | 29247 ft | 329 kts | 71° |
| 2026-05-04 16:03 | 62.31232 | -38.58284 | 29246 ft | 329 kts | 71° |
| 2026-05-04 16:04 | 62.32539 | -38.48781 | 29241 ft | 330 kts | 72° |
| 2026-05-04 16:04 | 62.34472 | -38.34615 | 29241 ft | 330 kts | 73° |
| 2026-05-04 16:05 | 62.35760 | -38.25113 | 29242 ft | 331 kts | 73° |
| 2026-05-04 16:06 | 62.37681 | -38.10829 | 29243 ft | 331 kts | 73° |
| 2026-05-04 16:07 | 62.40219 | -37.91764 | 29243 ft | 331 kts | 73° |
| 2026-05-04 16:08 | 62.42730 | -37.72669 | 29252 ft | 331 kts | 73° |
| 2026-05-04 16:09 | 62.45827 | -37.48799 | 29231 ft | 330 kts | 74° |
| 2026-05-04 16:10 | 62.48274 | -37.29673 | 29235 ft | 330 kts | 74° |
| 2026-05-04 16:11 | 62.50694 | -37.10526 | 29237 ft | 330 kts | 74° |
| 2026-05-04 16:12 | 62.54276 | -36.81726 | 29255 ft | 330 kts | 73° |
| 2026-05-04 16:13 | 62.56634 | -36.62472 | 29258 ft | 330 kts | 74° |
| 2026-05-04 16:14 | 62.58956 | -36.43264 | 29257 ft | 330 kts | 74° |
| 2026-05-04 16:16 | 62.61833 | -36.19112 | 29266 ft | 330 kts | 73° |
| 2026-05-04 16:17 | 62.64667 | -35.94916 | 29263 ft | 330 kts | 73° |
| 2026-05-04 16:18 | 62.66899 | -35.75583 | 29262 ft | 330 kts | 74° |
| 2026-05-04 16:19 | 62.69660 | -35.51293 | 29271 ft | 330 kts | 73° |
| 2026-05-04 16:20 | 62.72386 | -35.26940 | 29270 ft | 332 kts | 73° |
| 2026-05-04 16:22 | 62.75088 | -35.02301 | 29277 ft | 337 kts | 74° |
| 2026-05-04 16:23 | 62.78315 | -34.72298 | 29279 ft | 340 kts | 73° |
| 2026-05-04 16:25 | 62.81503 | -34.42026 | 29282 ft | 341 kts | 74° |
| 2026-05-04 16:26 | 62.85151 | -34.06509 | 29285 ft | 342 kts | 74° |
| 2026-05-04 16:28 | 62.87703 | -33.81059 | 29286 ft | 344 kts | 73° |
| 2026-05-04 16:29 | 62.91212 | -33.45237 | 29274 ft | 343 kts | 74° |
| 2026-05-04 16:31 | 62.93661 | -33.19610 | 29289 ft | 344 kts | 74° |
| 2026-05-04 16:32 | 62.96548 | -32.88708 | 29291 ft | 344 kts | 74° |
| 2026-05-04 16:33 | 62.98435 | -32.68059 | 29294 ft | 344 kts | 75° |
| 2026-05-04 16:34 | 62.99831 | -32.52561 | 29288 ft | 344 kts | 75° |
| 2026-05-04 16:35 | 63.02567 | -32.21571 | 29285 ft | 344 kts | 75° |
| 2026-05-04 16:36 | 63.03762 | -32.07766 | 29287 ft | 344 kts | 75° |
| 2026-05-04 16:37 | 63.05092 | -31.92200 | 29286 ft | 345 kts | 75° |
| 2026-05-04 16:38 | 63.06845 | -31.71350 | 29286 ft | 345 kts | 76° |
| 2026-05-04 16:39 | 63.08991 | -31.45300 | 29287 ft | 346 kts | 76° |
| 2026-05-04 16:40 | 63.10677 | -31.24364 | 29276 ft | 346 kts | 76° |
| 2026-05-04 16:41 | 63.12743 | -30.98155 | 29273 ft | 346 kts | 76° |
| 2026-05-04 16:43 | 63.14759 | -30.71927 | 29282 ft | 347 kts | 77° |
| 2026-05-04 16:43 | 63.15949 | -30.56112 | 29281 ft | 347 kts | 77° |
| 2026-05-04 16:45 | 63.18281 | -30.24395 | 29278 ft | 348 kts | 77° |
| 2026-05-04 16:46 | 63.20168 | -29.97971 | 29280 ft | 349 kts | 77° |
| 2026-05-04 16:47 | 63.21649 | -29.76696 | 29278 ft | 349 kts | 77° |
| 2026-05-04 16:48 | 63.23098 | -29.55413 | 29277 ft | 349 kts | 78° |
| 2026-05-04 16:49 | 63.24515 | -29.34107 | 29274 ft | 349 kts | 78° |
| 2026-05-04 16:50 | 63.25901 | -29.12750 | 29257 ft | 349 kts | 78° |
| 2026-05-04 16:51 | 63.26917 | -28.96770 | 29259 ft | 349 kts | 78° |
| 2026-05-04 16:52 | 63.28248 | -28.75384 | 29259 ft | 349 kts | 78° |
| 2026-05-04 16:53 | 63.29225 | -28.59333 | 29255 ft | 349 kts | 78° |
| 2026-05-04 16:54 | 63.30501 | -28.37886 | 29262 ft | 350 kts | 78° |
| 2026-05-04 16:55 | 63.32354 | -28.05686 | 29265 ft | 350 kts | 79° |
| 2026-05-04 16:56 | 63.33846 | -27.78768 | 29260 ft | 351 kts | 79° |
| 2026-05-04 16:57 | 63.34719 | -27.62558 | 29265 ft | 352 kts | 79° |
| 2026-05-04 16:58 | 63.35857 | -27.40876 | 29271 ft | 352 kts | 79° |
| 2026-05-04 17:00 | 63.37504 | -27.08285 | 29277 ft | 353 kts | 79° |
| 2026-05-04 17:01 | 63.39714 | -26.81744 | 29282 ft | 347 kts | 65° |
| 2026-05-04 17:02 | 63.42649 | -26.61199 | 29284 ft | 348 kts | 66° |
| 2026-05-04 17:03 | 63.44843 | -26.45727 | 29283 ft | 348 kts | 66° |
| 2026-05-04 17:03 | 63.47017 | -26.30259 | 29288 ft | 348 kts | 66° |
| 2026-05-04 17:04 | 63.49897 | -26.09552 | 29290 ft | 349 kts | 66° |
| 2026-05-04 17:05 | 63.52752 | -25.88759 | 29290 ft | 349 kts | 66° |
| 2026-05-04 17:06 | 63.54866 | -25.73198 | 29289 ft | 349 kts | 66° |
| 2026-05-04 17:07 | 63.56734 | -25.59314 | 29294 ft | 349 kts | 67° |
| 2026-05-04 17:07 | 63.58365 | -25.47103 | 29294 ft | 349 kts | 67° |
| 2026-05-04 17:08 | 63.60447 | -25.31375 | 29294 ft | 351 kts | 66° |
| 2026-05-04 17:09 | 63.61827 | -25.20861 | 29293 ft | 351 kts | 66° |
| 2026-05-04 17:09 | 63.63201 | -25.10334 | 29295 ft | 351 kts | 66° |
| 2026-05-04 17:10 | 63.66590 | -24.84052 | 29292 ft | 351 kts | 67° |
| 2026-05-04 17:11 | 63.67881 | -24.73447 | 29291 ft | 353 kts | 71° |
| 2026-05-04 17:12 | 63.69607 | -24.57357 | 29288 ft | 352 kts | 70° |
| 2026-05-04 17:12 | 63.70726 | -24.46491 | 28528 ft | 363 kts | 70° |
| 2026-05-04 17:13 | 63.72496 | -24.29556 | 26952 ft | 372 kts | 71° |
| 2026-05-04 17:14 | 63.74252 | -24.12455 | 25451 ft | 373 kts | 71° |
| 2026-05-04 17:14 | 63.74832 | -24.06742 | 24967 ft | 373 kts | 71° |
| 2026-05-04 17:14 | 63.75984 | -23.95353 | 24040 ft | 370 kts | 71° |
| 2026-05-04 17:15 | 63.76552 | -23.89697 | 23533 ft | 368 kts | 70° |
| 2026-05-04 17:15 | 63.77666 | -23.78537 | 22430 ft | 363 kts | 70° |
| 2026-05-04 17:16 | 63.78726 | -23.67698 | 21369 ft | 344 kts | 70° |
| 2026-05-04 17:16 | 63.80254 | -23.52230 | 19847 ft | 329 kts | 70° |
| 2026-05-04 17:17 | 63.80743 | -23.47212 | 19348 ft | 324 kts | 70° |
| 2026-05-04 17:17 | 63.82165 | -23.32493 | 17807 ft | 314 kts | 70° |
| 2026-05-04 17:18 | 63.82625 | -23.27678 | 17259 ft | 310 kts | 70° |
| 2026-05-04 17:18 | 63.83529 | -23.18218 | 16205 ft | 307 kts | 70° |
| 2026-05-04 17:19 | 63.84439 | -23.08659 | 15229 ft | 312 kts | 71° |
| 2026-05-04 17:19 | 63.85327 | -22.99083 | 14244 ft | 308 kts | 71° |
| 2026-05-04 17:20 | 63.86200 | -22.89710 | 13170 ft | 302 kts | 71° |
| 2026-05-04 17:20 | 63.87050 | -22.80530 | 12101 ft | 296 kts | 72° |
| 2026-05-04 17:20 | 63.87485 | -22.75954 | 11580 ft | 297 kts | 72° |
| 2026-05-04 17:21 | 63.88307 | -22.66784 | 10566 ft | 294 kts | 73° |
| 2026-05-04 17:21 | 63.89123 | -22.57797 | 9520 ft | 286 kts | 73° |
| 2026-05-04 17:22 | 63.89510 | -22.53452 | 9102 ft | 271 kts | 74° |
| 2026-05-04 17:22 | 63.89850 | -22.49414 | 8690 ft | 251 kts | 73° |
| 2026-05-04 17:23 | 63.90759 | -22.39635 | 7632 ft | 231 kts | 75° |
| 2026-05-04 17:23 | 63.91607 | -22.29998 | 6545 ft | 219 kts | 75° |
| 2026-05-04 17:24 | 63.91905 | -22.26637 | 6136 ft | 215 kts | 75° |
| 2026-05-04 17:24 | 63.92765 | -22.16928 | 5200 ft | 208 kts | 75° |
| 2026-05-04 17:25 | 63.93044 | -22.13699 | 4930 ft | 208 kts | 76° |
| 2026-05-04 17:25 | 63.93314 | -22.07192 | 4383 ft | 207 kts | 80° |
| 2026-05-04 17:26 | 63.93547 | -22.00868 | 3605 ft | 188 kts | 82° |
| 2026-05-04 17:26 | 63.93943 | -21.92803 | 3066 ft | 153 kts | 62° |
| 2026-05-04 17:27 | 63.95562 | -21.90487 | 2859 ft | 145 kts | 358° |
| 2026-05-04 17:27 | 63.97542 | -21.90885 | 2599 ft | 143 kts | 356° |
| 2026-05-04 17:28 | 63.99483 | -21.91224 | 2405 ft | 136 kts | 355° |
| 2026-05-04 17:29 | 64.02187 | -21.91746 | 2403 ft | 128 kts | 355° |
| 2026-05-04 17:29 | 64.04889 | -21.92258 | 1831 ft | 126 kts | 355° |
| 2026-05-04 17:30 | 64.07455 | -21.92742 | 1216 ft | 120 kts | 357° |
| 2026-05-04 17:31 | 64.09007 | -21.93025 | 815 ft | 109 kts | 356° |
| 2026-05-04 17:31 | 64.10930 | -21.93433 | 355 ft | 88 kts | 354° |
| 2026-05-04 17:32 | 64.12112 | -21.93610 | 87 ft | 75 kts | 358° |
| 2026-05-04 17:33 | 64.12837 | -21.93543 | 46 ft | 18 kts | 60° |
| 2026-05-04 17:33 | 64.12960 | -21.93565 | 44 ft | 21 kts | 356° |
| 2026-05-04 17:34 | 64.13206 | -21.93290 | 37 ft | 15 kts | 223° |
| 2026-05-04 17:34 | 64.13192 | -21.93411 | 38 ft | 0 kts | 250° |